createdAt,value
2019-05-21T00:00:10.547Z,34.73
2019-05-21T00:02:38.952Z,37.90
2019-05-21T00:05:07.419Z,33.50
2019-05-21T00:07:35.375Z,38.35
2019-05-21T00:10:03.939Z,33.63
2019-05-21T00:12:31.867Z,36.10
2019-05-21T00:15:00.101Z,25.40
2019-05-21T00:17:28.092Z,26.67
2019-05-21T00:19:56.375Z,29.83
2019-05-21T00:22:24.244Z,34.13
2019-05-21T00:24:52.329Z,29.20
2019-05-21T00:27:20.355Z,23.07
2019-05-21T00:30:24.176Z,28.40
2019-05-21T00:33:28.318Z,37.00
2019-05-21T00:36:33.511Z,28.40
2019-05-21T00:39:37.585Z,25.60
2019-05-21T00:42:05.056Z,30.17
2019-05-21T00:44:41.251Z,33.23
2019-05-21T00:47:11.319Z,32.33
2019-05-21T00:49:39.544Z,31.27
2019-05-21T00:52:09.135Z,31.77
2019-05-21T00:54:37.574Z,25.90
2019-05-21T00:57:06.052Z,26.70
2019-05-21T00:59:34.357Z,30.73
2019-05-21T01:02:03.030Z,28.77
2019-05-21T01:04:31.275Z,30.47
2019-05-21T01:06:59.471Z,33.53
2019-05-21T01:09:27.642Z,35.93
2019-05-21T01:11:55.860Z,30.57
2019-05-21T01:14:24.080Z,33.27
2019-05-21T01:16:51.914Z,36.63
2019-05-21T01:19:19.744Z,35.30
2019-05-21T01:21:47.616Z,33.57
2019-05-21T01:24:15.828Z,33.20
2019-05-21T01:26:43.973Z,29.57
2019-05-21T01:29:12.481Z,34.93
2019-05-21T01:31:40.346Z,27.43
2019-05-21T01:34:11.315Z,35.10
2019-05-21T01:36:37.872Z,32.87
2019-05-21T01:39:05.909Z,29.43
2019-05-21T01:41:34.225Z,33.53
2019-05-21T01:44:02.735Z,32.67
2019-05-21T01:46:31.741Z,31.00
2019-05-21T01:48:59.596Z,29.67
2019-05-21T01:51:27.745Z,25.83
2019-05-21T01:53:55.615Z,28.27
2019-05-21T01:56:23.428Z,30.17
2019-05-21T01:58:51.429Z,33.97
2019-05-21T02:01:19.843Z,29.70
2019-05-21T02:03:48.162Z,32.23
2019-05-21T02:06:16.575Z,28.20
2019-05-21T02:08:45.610Z,31.87
2019-05-21T02:11:13.541Z,33.50
2019-05-21T02:13:41.588Z,34.93
2019-05-21T02:16:09.625Z,32.37
2019-05-21T02:18:37.679Z,32.77
2019-05-21T02:21:05.570Z,32.43
2019-05-21T02:23:33.484Z,31.40
2019-05-21T02:26:01.728Z,35.73
2019-05-21T02:28:29.629Z,37.00
2019-05-21T02:30:57.557Z,34.73
2019-05-21T02:33:25.506Z,36.33
2019-05-21T02:35:54.884Z,32.70
2019-05-21T02:38:23.100Z,34.53
2019-05-21T02:40:51.005Z,31.33
2019-05-21T02:43:18.862Z,28.17
2019-05-21T02:45:46.762Z,26.03
2019-05-21T02:48:14.968Z,26.63
2019-05-21T02:50:42.858Z,29.63
2019-05-21T02:53:11.120Z,32.83
2019-05-21T02:55:38.977Z,31.50
2019-05-21T02:58:07.667Z,26.77
2019-05-21T03:00:51.560Z,30.50
2019-05-21T03:03:20.882Z,30.63
2019-05-21T03:05:48.706Z,22.40
2019-05-21T03:08:16.644Z,31.90
2019-05-21T03:10:44.912Z,30.90
2019-05-21T03:13:12.941Z,32.47
2019-05-21T03:15:40.783Z,31.03
2019-05-21T03:18:09.284Z,33.97
2019-05-21T03:20:37.488Z,32.63
2019-05-21T03:23:05.757Z,36.00
2019-05-21T03:25:33.644Z,34.83
2019-05-21T03:28:02.098Z,31.77
2019-05-21T03:30:30.043Z,30.60
2019-05-21T03:32:57.896Z,29.10
2019-05-21T03:35:25.908Z,23.87
2019-05-21T03:37:54.159Z,32.87
2019-05-21T03:40:22.096Z,22.43
2019-05-21T03:42:50.336Z,23.70
2019-05-21T03:45:18.599Z,27.45
2019-05-21T03:47:46.494Z,27.83
2019-05-21T03:50:14.747Z,24.57
2019-05-21T03:52:42.671Z,22.73
2019-05-21T03:55:10.705Z,26.73
2019-05-21T03:57:38.672Z,25.70
2019-05-21T04:00:07.380Z,26.60
2019-05-21T04:02:35.679Z,30.20
2019-05-21T04:05:04.713Z,31.07
2019-05-21T04:07:32.591Z,32.53
2019-05-21T04:10:00.647Z,34.23
2019-05-21T04:12:29.227Z,31.70
2019-05-21T04:15:01.491Z,33.50
2019-05-21T04:17:48.217Z,31.93
2019-05-21T04:20:16.066Z,31.73
2019-05-21T04:22:53.198Z,24.87
2019-05-21T04:25:22.812Z,26.57
2019-05-21T04:27:51.513Z,28.93
2019-05-21T04:30:19.813Z,30.62
2019-05-21T04:32:48.132Z,29.60
2019-05-21T04:35:16.602Z,28.97
2019-05-21T04:37:45.161Z,27.17
2019-05-21T04:40:13.290Z,25.87
2019-05-21T04:42:41.328Z,31.97
2019-05-21T04:45:10.421Z,28.03
2019-05-21T04:47:40.319Z,25.23
2019-05-21T04:50:08.807Z,25.00
2019-05-21T04:52:37.091Z,24.10
2019-05-21T04:55:05.416Z,25.33
2019-05-21T04:57:37.175Z,24.03
2019-05-21T05:00:03.967Z,29.30
2019-05-21T05:02:32.034Z,21.10
2019-05-21T05:05:00.146Z,26.20
2019-05-21T05:07:29.058Z,22.27
2019-05-21T05:09:57.130Z,27.30
2019-05-21T05:12:25.214Z,22.07
2019-05-21T05:14:53.418Z,25.43
2019-05-21T05:17:21.948Z,27.20
2019-05-21T05:19:50.429Z,24.47
2019-05-21T05:22:18.526Z,28.87
2019-05-21T05:24:46.567Z,27.67
2019-05-21T05:27:14.991Z,23.60
2019-05-21T05:29:43.820Z,22.00
2019-05-21T05:32:11.982Z,24.07
2019-05-21T05:34:40.061Z,25.73
2019-05-21T05:37:08.687Z,23.10
2019-05-21T05:39:36.891Z,24.67
2019-05-21T05:42:04.990Z,22.30
2019-05-21T05:44:33.254Z,23.23
2019-05-21T05:47:01.455Z,23.50
2019-05-21T05:49:34.626Z,17.80
2019-05-21T05:52:02.921Z,18.07
2019-05-21T05:54:31.774Z,15.43
2019-05-21T05:56:59.993Z,21.63
2019-05-21T05:59:28.121Z,21.20
2019-05-21T06:01:56.621Z,20.87
2019-05-21T06:04:24.657Z,21.77
2019-05-21T06:06:52.574Z,21.13
2019-05-21T06:09:20.475Z,18.97
2019-05-21T06:11:49.164Z,22.90
2019-05-21T06:14:17.453Z,19.37
2019-05-21T06:16:46.179Z,21.30
2019-05-21T06:19:14.500Z,20.77
2019-05-21T06:21:42.788Z,20.90
2019-05-21T06:24:13.504Z,22.37
2019-05-21T06:26:40.886Z,23.53
2019-05-21T06:29:09.245Z,21.57
2019-05-21T06:31:40.723Z,23.93
2019-05-21T06:34:08.620Z,28.57
2019-05-21T06:36:38.187Z,23.67
2019-05-21T06:39:07.397Z,24.20
2019-05-21T06:41:35.433Z,19.77
2019-05-21T06:44:03.709Z,18.50
2019-05-21T06:46:32.135Z,18.20
2019-05-21T06:49:00.447Z,18.17
2019-05-21T06:51:28.998Z,17.53
2019-05-21T06:53:57.334Z,17.27
2019-05-21T06:56:25.381Z,19.67
2019-05-21T06:58:53.936Z,20.50
2019-05-21T07:01:28.226Z,21.53
2019-05-21T07:03:52.353Z,22.70
2019-05-21T07:06:20.322Z,23.40
2019-05-21T07:08:48.957Z,23.20
2019-05-21T07:11:17.047Z,20.80
2019-05-21T07:13:45.483Z,17.97
2019-05-21T07:16:13.844Z,15.90
2019-05-21T07:18:41.959Z,12.93
2019-05-21T07:21:09.932Z,15.87
2019-05-21T07:23:38.364Z,10.77
2019-05-21T07:26:06.542Z,9.00
2019-05-21T07:28:34.709Z,12.23
2019-05-21T07:31:02.766Z,14.18
2019-05-21T07:33:32.407Z,9.57
2019-05-21T07:36:00.552Z,10.70
2019-05-21T07:38:29.003Z,9.77
2019-05-21T07:40:57.199Z,10.40
2019-05-21T07:43:25.581Z,11.30
2019-05-21T07:45:53.596Z,7.90
2019-05-21T07:48:21.926Z,11.60
2019-05-21T07:50:50.141Z,12.70
2019-05-21T07:53:18.159Z,11.37
2019-05-21T07:55:46.885Z,12.20
2019-05-21T07:58:14.973Z,15.70
2019-05-21T08:00:43.563Z,14.90
2019-05-21T08:03:12.515Z,10.07
2019-05-21T08:05:40.537Z,12.07
2019-05-21T08:08:09.063Z,9.10
2019-05-21T08:10:37.288Z,10.73
2019-05-21T08:13:08.190Z,10.87
2019-05-21T08:15:36.498Z,9.43
2019-05-21T08:18:04.784Z,8.33
2019-05-21T08:20:33.618Z,10.97
2019-05-21T08:23:01.711Z,10.53
2019-05-21T08:25:29.657Z,7.87
2019-05-21T08:27:57.885Z,8.93
2019-05-21T08:30:26.033Z,10.27
2019-05-21T08:32:54.741Z,7.93
2019-05-21T08:35:22.985Z,12.87
2019-05-21T08:37:51.665Z,9.43
2019-05-21T08:40:20.133Z,7.50
2019-05-21T08:42:48.319Z,7.77
2019-05-21T08:45:17.058Z,10.27
2019-05-21T08:47:46.283Z,8.43
2019-05-21T08:50:16.054Z,9.10
2019-05-21T08:52:44.837Z,12.50
2019-05-21T08:55:15.469Z,11.83
2019-05-21T08:57:43.646Z,10.80
2019-05-21T09:00:13.544Z,7.60
2019-05-21T09:02:41.680Z,11.35
2019-05-21T09:05:10.072Z,10.73
2019-05-21T09:07:38.136Z,16.20
2019-05-21T09:10:06.918Z,9.10
2019-05-21T09:12:35.121Z,9.07
2019-05-21T09:15:03.299Z,8.10
2019-05-21T09:17:32.848Z,11.87
2019-05-21T09:20:03.552Z,8.07
2019-05-21T09:22:33.935Z,6.50
2019-05-21T09:25:03.570Z,11.20
2019-05-21T09:27:32.548Z,11.57
2019-05-21T09:30:00.961Z,8.63
2019-05-21T09:32:29.682Z,9.80
2019-05-21T09:35:02.029Z,7.17
2019-05-21T09:37:32.220Z,7.83
2019-05-21T09:40:00.535Z,6.80
2019-05-21T09:42:28.960Z,8.17
2019-05-21T09:44:57.054Z,8.83
2019-05-21T09:47:26.289Z,11.15
2019-05-21T09:49:54.354Z,9.97
2019-05-21T09:52:22.388Z,8.77
2019-05-21T09:54:50.579Z,6.57
2019-05-21T09:57:24.925Z,6.73
2019-05-21T09:59:59.565Z,7.77
2019-05-21T10:02:29.511Z,6.03
2019-05-21T10:04:58.573Z,8.47
2019-05-21T10:07:38.889Z,6.00
2019-05-21T10:09:57.630Z,6.87
2019-05-21T10:12:25.786Z,9.10
2019-05-21T10:14:54.366Z,7.13
2019-05-21T10:17:24.279Z,5.77
2019-05-21T10:19:52.287Z,6.73
2019-05-21T10:22:20.219Z,6.17
2019-05-21T10:24:48.316Z,21.93
2019-05-21T10:27:17.394Z,4.77
2019-05-21T10:29:45.555Z,4.03
2019-05-21T10:32:13.896Z,5.00
2019-05-21T10:34:41.924Z,6.80
2019-05-21T10:37:09.994Z,3.87
2019-05-21T10:39:38.037Z,5.93
2019-05-21T10:42:06.156Z,5.03
2019-05-21T10:44:34.342Z,5.73
2019-05-21T10:47:04.424Z,7.15
2019-05-21T10:49:32.899Z,6.13
2019-05-21T10:52:01.198Z,7.73
2019-05-21T10:54:31.929Z,6.03
2019-05-21T10:57:00.433Z,6.17
2019-05-21T10:59:28.843Z,8.07
2019-05-21T11:02:25.365Z,6.80
2019-05-21T11:04:57.603Z,10.13
2019-05-21T11:07:26.070Z,5.42
2019-05-21T11:09:54.056Z,5.53
2019-05-21T11:12:22.358Z,7.22
2019-05-21T11:14:50.821Z,4.93
2019-05-21T11:17:21.072Z,5.93
2019-05-21T11:19:49.196Z,3.83
2019-05-21T11:22:17.710Z,6.00
2019-05-21T11:24:46.138Z,5.55
2019-05-21T11:27:14.374Z,4.77
2019-05-21T11:29:42.856Z,4.87
2019-05-21T11:32:11.372Z,6.33
2019-05-21T11:34:39.676Z,6.67
2019-05-21T11:37:07.884Z,7.73
2019-05-21T11:39:36.356Z,4.75
2019-05-21T11:42:04.674Z,5.70
2019-05-21T11:44:32.667Z,6.97
2019-05-21T11:47:01.296Z,6.15
2019-05-21T11:49:30.120Z,6.87
2019-05-21T11:51:59.035Z,5.93
2019-05-21T11:54:30.806Z,5.63
2019-05-21T11:56:59.309Z,4.67
2019-05-21T11:59:29.153Z,4.65
2019-05-21T12:01:58.420Z,5.80
2019-05-21T12:04:30.472Z,4.90
2019-05-21T12:07:03.417Z,5.35
2019-05-21T12:09:32.874Z,8.43
2019-05-21T12:12:03.335Z,4.80
2019-05-21T12:14:31.494Z,7.53
2019-05-21T12:17:00.927Z,6.47
2019-05-21T12:19:30.147Z,7.05
2019-05-21T12:21:59.569Z,6.07
2019-05-21T12:24:28.137Z,7.70
2019-05-21T12:26:56.805Z,7.63
2019-05-21T12:29:25.147Z,5.77
2019-05-21T12:31:53.690Z,6.87
2019-05-21T12:34:22.990Z,8.37
2019-05-21T12:36:51.790Z,8.93
2019-05-21T12:39:20.905Z,6.22
2019-05-21T12:41:49.451Z,7.40
2019-05-21T12:44:18.183Z,7.72
2019-05-21T12:46:47.150Z,9.27
2019-05-21T12:49:16.230Z,6.57
2019-05-21T12:51:44.350Z,5.40
2019-05-21T12:54:12.316Z,6.30
2019-05-21T12:56:41.404Z,5.20
2019-05-21T12:59:09.853Z,6.60
2019-05-21T13:01:38.057Z,6.30
2019-05-21T13:04:06.215Z,8.50
2019-05-21T13:06:34.545Z,5.85
2019-05-21T13:09:07.758Z,6.00
2019-05-21T13:11:35.695Z,7.70
2019-05-21T13:14:04.289Z,7.23
2019-05-21T13:16:32.150Z,6.00
2019-05-21T13:19:04.257Z,6.22
2019-05-21T13:21:35.208Z,6.25
2019-05-21T13:24:15.047Z,6.65
2019-05-21T13:26:45.989Z,7.90
2019-05-21T13:32:49.082Z,5.73
2019-05-21T13:35:17.599Z,6.85
2019-05-21T13:37:45.738Z,6.40
2019-05-21T13:40:19.602Z,5.35
2019-05-21T13:42:48.064Z,6.47
2019-05-21T13:45:18.273Z,10.80
2019-05-21T13:47:48.979Z,8.18
2019-05-21T13:50:17.134Z,11.70
2019-05-21T13:52:45.632Z,7.17
2019-05-21T13:55:14.229Z,9.13
2019-05-21T13:57:43.573Z,8.50
2019-05-21T14:00:15.397Z,8.23
2019-05-21T14:02:43.526Z,7.77
2019-05-21T14:05:12.174Z,8.18
2019-05-21T14:07:40.589Z,8.23
2019-05-21T14:10:17.103Z,9.03
2019-05-21T14:12:40.012Z,8.70
2019-05-21T14:15:08.916Z,7.83
2019-05-21T14:17:37.185Z,6.65
2019-05-21T14:20:07.366Z,7.53
2019-05-21T14:22:37.719Z,9.93
2019-05-21T14:25:06.840Z,7.83
2019-05-21T14:27:44.462Z,8.15
2019-05-21T14:30:05.611Z,5.72
2019-05-21T14:32:33.584Z,6.53
2019-05-21T14:35:02.652Z,6.83
2019-05-21T14:37:30.672Z,7.12
2019-05-21T14:39:59.223Z,5.73
2019-05-21T14:42:27.513Z,8.10
2019-05-21T14:44:55.592Z,6.92
2019-05-21T14:47:24.031Z,6.33
2019-05-21T14:49:52.218Z,7.60
2019-05-21T14:52:20.755Z,8.43
2019-05-21T14:54:48.906Z,10.97
2019-05-21T14:57:16.954Z,9.73
2019-05-21T14:59:44.906Z,8.20
2019-05-21T15:02:17.651Z,8.68
2019-05-21T15:04:45.975Z,10.05
2019-05-21T15:07:14.052Z,11.37
2019-05-21T15:09:42.214Z,9.60
2019-05-21T15:12:10.306Z,9.55
2019-05-21T15:14:39.733Z,10.63
2019-05-21T15:17:08.083Z,10.95
2019-05-21T15:19:36.603Z,10.93
2019-05-21T15:22:04.786Z,12.80
2019-05-21T15:24:33.736Z,11.33
2019-05-21T15:27:01.996Z,10.75
2019-05-21T15:29:29.958Z,11.88
2019-05-21T15:31:58.606Z,10.00
2019-05-21T15:34:26.848Z,13.05
2019-05-21T15:36:55.219Z,14.75
2019-05-21T15:39:23.456Z,18.25
2019-05-21T15:41:52.259Z,18.35
2019-05-21T15:44:20.573Z,15.53
2019-05-21T15:46:50.656Z,18.50
2019-05-21T15:49:33.338Z,20.12
2019-05-21T15:51:48.982Z,18.82
2019-05-21T15:54:17.152Z,18.67
2019-05-21T15:56:45.365Z,17.05
2019-05-21T15:59:13.824Z,18.67
2019-05-21T16:01:42.279Z,18.40
2019-05-21T16:04:11.224Z,19.02
2019-05-21T16:06:39.526Z,19.80
2019-05-21T16:09:08.744Z,20.25
2019-05-21T16:11:37.209Z,18.23
2019-05-21T16:14:06.173Z,18.25
2019-05-21T16:16:34.485Z,20.08
2019-05-21T16:19:02.931Z,16.45
2019-05-21T16:21:31.519Z,20.02
2019-05-21T16:23:59.619Z,19.30
2019-05-21T16:26:27.656Z,18.70
2019-05-21T16:28:56.291Z,18.80
2019-05-21T16:31:24.371Z,16.32
2019-05-21T16:33:52.678Z,16.62
2019-05-21T16:36:21.181Z,17.77
2019-05-21T16:38:49.071Z,16.15
2019-05-21T16:41:17.025Z,18.12
2019-05-21T16:43:44.965Z,19.52
2019-05-21T16:46:12.941Z,18.62
2019-05-21T16:48:41.872Z,20.32
2019-05-21T16:51:10.851Z,21.12
2019-05-21T16:53:38.985Z,21.85
2019-05-21T16:56:08.616Z,23.15
2019-05-21T16:58:36.897Z,23.77
2019-05-21T17:01:06.999Z,24.70
2019-05-21T17:03:36.594Z,20.35
2019-05-21T17:06:04.792Z,23.15
2019-05-21T17:08:33.928Z,21.30
2019-05-21T17:11:02.217Z,23.87
2019-05-21T17:13:30.166Z,21.80
2019-05-21T17:15:58.229Z,24.27
2019-05-21T17:18:27.527Z,24.50
2019-05-21T17:20:56.002Z,21.17
2019-05-21T17:23:24.585Z,21.03
2019-05-21T17:25:52.547Z,24.67
2019-05-21T17:28:21.334Z,21.47
2019-05-21T17:30:49.859Z,20.37
2019-05-21T17:33:18.840Z,23.37
2019-05-21T17:35:47.324Z,25.63
2019-05-21T17:38:16.064Z,25.82
2019-05-21T17:40:44.372Z,30.07
2019-05-21T17:43:12.747Z,25.17
2019-05-21T17:45:42.355Z,24.00
2019-05-21T17:48:11.358Z,28.70
2019-05-21T17:50:39.894Z,26.97
2019-05-21T17:53:08.980Z,26.50
2019-05-21T17:55:37.050Z,25.83
2019-05-21T17:58:05.198Z,23.37
2019-05-21T18:00:51.071Z,26.10
2019-05-21T18:03:19.279Z,22.87
2019-05-21T18:05:48.240Z,23.83
2019-05-21T18:08:17.303Z,24.03
2019-05-21T18:10:46.254Z,25.87
2019-05-21T18:13:15.912Z,24.87
2019-05-21T18:15:44.936Z,25.90
2019-05-21T18:18:12.973Z,23.90
2019-05-21T18:20:41.621Z,23.27
2019-05-21T18:23:10.510Z,21.07
2019-05-21T18:25:38.554Z,21.67
2019-05-21T18:28:06.862Z,22.00
2019-05-21T18:30:34.932Z,20.60
2019-05-21T18:33:03.441Z,23.80
2019-05-21T18:35:32.574Z,22.00
2019-05-21T18:38:00.636Z,23.23
2019-05-21T18:40:29.270Z,21.87
2019-05-21T18:42:57.352Z,22.50
2019-05-21T18:45:25.539Z,23.30
2019-05-21T18:47:53.779Z,22.77
2019-05-21T18:50:34.734Z,21.10
2019-05-21T18:52:52.857Z,20.57
2019-05-21T18:55:20.874Z,20.10
2019-05-21T18:57:49.363Z,20.90
2019-05-21T19:00:17.852Z,18.47
2019-05-21T19:02:46.533Z,19.73
2019-05-21T19:05:14.716Z,21.37
2019-05-21T19:07:43.084Z,24.30
2019-05-21T19:10:11.519Z,19.03
2019-05-21T19:12:40.156Z,19.00
2019-05-21T19:15:09.094Z,19.77
2019-05-21T19:17:37.538Z,21.37
2019-05-21T19:20:06.250Z,22.27
2019-05-21T19:22:35.116Z,21.67
2019-05-21T19:25:03.796Z,22.43
2019-05-21T19:27:32.012Z,24.20
2019-05-21T19:30:00.141Z,22.67
2019-05-21T19:32:28.768Z,25.03
2019-05-21T19:34:57.286Z,26.10
2019-05-21T19:37:25.779Z,27.20
2019-05-21T19:39:53.947Z,25.90
2019-05-21T19:42:22.401Z,30.73
2019-05-21T19:44:50.433Z,29.90
2019-05-21T19:47:18.780Z,24.37
2019-05-21T19:49:47.363Z,31.87
2019-05-21T19:52:16.937Z,34.13
2019-05-21T19:54:45.388Z,34.30
2019-05-21T19:57:24.324Z,32.23
2019-05-21T19:59:53.283Z,36.00
2019-05-21T20:02:22.602Z,33.93
2019-05-21T20:04:51.790Z,39.43
2019-05-21T20:07:21.098Z,44.13
2019-05-21T20:09:51.225Z,48.70
2019-05-21T20:12:20.422Z,55.43
2019-05-21T20:14:48.968Z,64.70
2019-05-21T20:17:18.379Z,62.90
2019-05-21T20:19:49.698Z,70.43
2019-05-21T20:22:18.846Z,65.67
2019-05-21T20:24:48.300Z,71.67
2019-05-21T20:27:18.305Z,75.97
2019-05-21T20:29:47.480Z,76.20
2019-05-21T20:32:16.756Z,77.27
2019-05-21T20:34:45.242Z,78.57
2019-05-21T20:37:18.698Z,86.27
2019-05-21T20:39:49.575Z,89.77
2019-05-21T20:42:20.987Z,93.87
2019-05-21T20:44:49.968Z,88.30
2019-05-21T20:47:19.963Z,101.83
2019-05-21T20:49:51.489Z,111.50
2019-05-21T20:52:47.023Z,112.20
2019-05-21T20:55:21.517Z,127.23
2019-05-21T20:58:06.177Z,121.33
2019-05-21T21:00:41.430Z,130.07
2019-05-21T21:03:12.045Z,130.43
2019-05-21T21:05:50.967Z,134.63
2019-05-21T21:08:38.259Z,145.60
2019-05-21T21:11:19.597Z,157.77
2019-05-21T21:13:48.649Z,213.80
2019-05-21T21:16:17.401Z,201.53
2019-05-21T21:18:45.903Z,196.93
2019-05-21T21:21:14.425Z,203.87
2019-05-21T21:23:43.126Z,205.97
2019-05-21T21:26:12.880Z,223.30
2019-05-21T21:28:41.487Z,217.63
2019-05-21T21:31:09.799Z,205.67
2019-05-21T21:33:38.387Z,209.77
2019-05-21T21:36:06.459Z,192.73
2019-05-21T21:38:38.296Z,195.07
2019-05-21T21:41:07.169Z,202.97
2019-05-21T21:43:35.364Z,200.90
2019-05-21T21:46:03.667Z,218.37
2019-05-21T21:48:31.856Z,218.63
2019-05-21T21:51:01.893Z,214.93
2019-05-21T21:53:30.558Z,255.97
2019-05-21T21:55:58.681Z,274.45
2019-05-21T21:58:26.701Z,258.33
2019-05-21T22:01:26.087Z,308.70
2019-05-21T22:03:58.272Z,276.03
2019-05-21T22:06:29.333Z,300.20
2019-05-21T22:08:58.454Z,265.97
2019-05-21T22:11:26.736Z,263.50
2019-05-21T22:13:55.696Z,269.23
2019-05-21T22:16:24.259Z,271.30
2019-05-21T22:18:52.640Z,345.90
2019-05-21T22:21:20.995Z,447.30
2019-05-21T22:23:50.760Z,389.67
2019-05-21T22:26:19.098Z,324.10
2019-05-21T22:28:47.432Z,302.37
2019-05-21T22:31:15.603Z,289.30
2019-05-21T22:33:43.955Z,288.93
2019-05-21T22:36:12.414Z,284.27
2019-05-21T22:38:41.176Z,271.93
2019-05-21T22:41:10.215Z,267.37
2019-05-21T22:43:39.596Z,249.17
2019-05-21T22:46:07.769Z,277.63
2019-05-21T22:48:36.090Z,253.40
2019-05-21T22:51:04.416Z,269.20
2019-05-21T22:53:32.643Z,251.03
2019-05-21T22:56:00.890Z,286.53
2019-05-21T22:58:29.067Z,287.10
2019-05-21T23:00:57.918Z,274.07
2019-05-21T23:03:28.532Z,286.30
2019-05-21T23:05:56.735Z,271.23
2019-05-21T23:08:25.954Z,254.73
2019-05-21T23:10:54.277Z,255.63
2019-05-21T23:13:22.486Z,264.23
2019-05-21T23:15:52.222Z,250.70
2019-05-21T23:18:20.712Z,269.03
2019-05-21T23:20:49.449Z,334.20
2019-05-21T23:23:18.836Z,327.43
2019-05-21T23:25:46.931Z,305.10
2019-05-21T23:28:15.719Z,319.57
2019-05-21T23:30:43.816Z,333.30
2019-05-21T23:33:13.917Z,320.60
2019-05-21T23:35:42.562Z,350.83
2019-05-21T23:38:10.960Z,301.13
2019-05-21T23:40:39.379Z,310.70
2019-05-21T23:43:09.504Z,337.23
2019-05-21T23:45:37.780Z,366.83
2019-05-21T23:48:08.252Z,343.47
2019-05-21T23:50:37.274Z,357.90
2019-05-21T23:53:06.932Z,350.47
2019-05-21T23:55:35.342Z,354.93
2019-05-21T23:58:03.870Z,327.53
